Adair, IL (61411)

5:02 AM CDT on August 30, 2014 (GMT -0500)
Astoria | Change Station
CLOSE
Current Station
Personal Weather Station
Location: Astoria, IL
Elevation: 712 ft
Nearby Weather Stations

Elev 712 ft 40.23 °N, 90.35 °W | Updated 5 minutes ago

Mostly Cloudy
Mostly Cloudy
69.8 °F
Feels Like 69.8 °F
N
4.0
Wind Variable Wind from SSE
Gusts 6.0 mph

Today
High -- | Low -- °F
--% Chance of Precip.
Yesterday
High -- | Low -- °F
Precip. -- in
6:27 AM 7:36 PM
Waxing Crescent, 20% visible
Pressure 29.86 in
Visibility 7.0 miles
Clouds Mostly Cloudy 10000 ft
Dew Point 68 °F
Humidity 95%
Rainfall 0.09 in
Snow Depth Not available.
UV 0 out of 12
Pollen 8.20 out of 12
Air Quality Not available.
Flu Activity Not available.
METAR KMQB 300955Z AUTO 23009KT 7SM -RA BKN100 22/21 A2986 RMK AO2 T02190206

More Conditions Fewer Conditions

Pressure 29.86 in
Visibility 7.0 miles
Clouds Mostly Cloudy 10000 ft
Dew Point 68 °F
Humidity 95%
Rainfall 0.09 in
Snow Depth Not available.
UV 0 out of 12
Pollen 8.20 out of 12
Air Quality Not available.
Flu Activity Not available.
METAR KMQB 300955Z AUTO 23009KT 7SM -RA BKN100 22/21 A2986 RMK AO2 T02190206

More Conditions Fewer Conditions

10-Day Weather Forecast

Almanac

Astronomy

Aug. 30, 2014 Rise Set
Actual Time 6:27 AM CDT 7:36 PM CDT
Civil Twilight 5:59 AM CDT 8:04 PM CDT
Nautical Twilight 5:25 AM CDT 8:37 PM CDT
Astronomical Twilight 4:50 AM CDT 9:12 PM CDT
Moon 11:15 AM CDT 10:10 PM CDT
Length of Visible Light 14h 05m
Length of Day
13h 09m
Tomorrow will be 2m 32s shorter.
Waxing Crescent, 20% of the Moon is Illuminated
Today
Waxing Crescent
Sep 2
First Quarter
Sep 8
Full
Sep 15
Last Quarter
Sep 24
New

Today's Extremes

State Highs State Lows

Community

WunderPhotos

Upload Photos

1,748,475 photos uploaded!

Nearby

Snow Depth

Station Depth Elevation
No new snow has been reported.

Earthquake Activity

City Distance Mag. Time & Date
No recent earthquake activity has been reported nearby.
Minimum magnitude displayed is 2.5.

Coastal Water Temperatures

Place Temperature
No Stations Reporting

Nearby Weather Stations